sensor_id;sensor_type;location;lat;lon;timestamp;pressure;altitude;pressure_sealevel;temperature;humidity
43155;BME280;34212;51.018;13.586;2022-09-28T00:04:01;96121.63;;;12.02;67.72
43155;BME280;34212;51.018;13.586;2022-09-28T00:09:03;96116.84;;;12.05;67.81
43155;BME280;34212;51.018;13.586;2022-09-28T00:14:05;96116.38;;;12.08;67.66
43155;BME280;34212;51.018;13.586;2022-09-28T00:19:07;96109.16;;;12.08;67.89
43155;BME280;34212;51.018;13.586;2022-09-28T00:24:11;96103.63;;;12.10;67.87
43155;BME280;34212;51.018;13.586;2022-09-28T00:34:28;96099.66;;;12.12;67.85
43155;BME280;34212;51.018;13.586;2022-09-28T00:39:31;96090.81;;;12.12;67.71
43155;BME280;34212;51.018;13.586;2022-09-28T00:44:35;96089.44;;;12.09;67.58
43155;BME280;34212;51.018;13.586;2022-09-28T00:49:45;96084.22;;;12.02;67.28
43155;BME280;34212;51.018;13.586;2022-09-28T00:54:47;96078.59;;;11.92;66.96
43155;BME280;34212;51.018;13.586;2022-09-28T00:59:51;96085.28;;;11.83;66.71
43155;BME280;34212;51.018;13.586;2022-09-28T01:04:52;96073.91;;;11.76;66.82
43155;BME280;34212;51.018;13.586;2022-09-28T01:09:54;96076.00;;;11.74;67.00
43155;BME280;34212;51.018;13.586;2022-09-28T01:14:56;96069.03;;;11.73;67.25
43155;BME280;34212;51.018;13.586;2022-09-28T01:25:05;96070.19;;;11.77;67.44
43155;BME280;34212;51.018;13.586;2022-09-28T01:30:08;96064.03;;;11.76;67.22
43155;BME280;34212;51.018;13.586;2022-09-28T01:35:15;96051.75;;;11.75;67.57
43155;BME280;34212;51.018;13.586;2022-09-28T01:40:19;96049.88;;;11.76;67.75
43155;BME280;34212;51.018;13.586;2022-09-28T01:45:23;96044.06;;;11.79;67.76
43155;BME280;34212;51.018;13.586;2022-09-28T01:50:27;96048.16;;;11.82;67.69
43155;BME280;34212;51.018;13.586;2022-09-28T01:55:31;96046.03;;;11.84;67.83
43155;BME280;34212;51.018;13.586;2022-09-28T02:00:35;96045.03;;;11.85;67.92
43155;BME280;34212;51.018;13.586;2022-09-28T02:05:39;96038.44;;;11.87;67.98
43155;BME280;34212;51.018;13.586;2022-09-28T02:11:00;96037.97;;;11.90;67.94
43155;BME280;34212;51.018;13.586;2022-09-28T02:26:55;96037.22;;;11.83;67.83
43155;BME280;34212;51.018;13.586;2022-09-28T02:32:04;96029.22;;;11.83;67.79
43155;BME280;34212;51.018;13.586;2022-09-28T02:37:06;96021.00;;;11.85;67.71
43155;BME280;34212;51.018;13.586;2022-09-28T03:08:10;95998.69;;;11.79;68.02
43155;BME280;34212;51.018;13.586;2022-09-28T03:13:16;95997.06;;;11.78;68.16
43155;BME280;34212;51.018;13.586;2022-09-28T03:18:18;95998.91;;;11.77;68.38
43155;BME280;34212;51.018;13.586;2022-09-28T03:23:19;95990.53;;;11.74;68.65
43155;BME280;34212;51.018;13.586;2022-09-28T03:28:25;95991.00;;;11.71;68.48
43155;BME280;34212;51.018;13.586;2022-09-28T03:33:27;95994.50;;;11.71;68.74
43155;BME280;34212;51.018;13.586;2022-09-28T03:38:28;96001.22;;;11.74;68.57
43155;BME280;34212;51.018;13.586;2022-09-28T03:43:30;96004.81;;;11.79;68.59
43155;BME280;34212;51.018;13.586;2022-09-28T03:48:34;96000.00;;;11.88;68.61
43155;BME280;34212;51.018;13.586;2022-09-28T03:53:36;96001.72;;;11.94;68.63
43155;BME280;34212;51.018;13.586;2022-09-28T03:58:37;95981.03;;;12.01;68.46
43155;BME280;34212;51.018;13.586;2022-09-28T04:03:39;95975.81;;;12.07;68.59
43155;BME280;34212;51.018;13.586;2022-09-28T04:08:41;95957.22;;;12.12;68.71
43155;BME280;34212;51.018;13.586;2022-09-28T04:13:46;95947.94;;;12.14;68.87
43155;BME280;34212;51.018;13.586;2022-09-28T04:18:48;95948.72;;;12.15;68.98
43155;BME280;34212;51.018;13.586;2022-09-28T04:24:07;95947.13;;;12.14;68.92
43155;BME280;34212;51.018;13.586;2022-09-28T04:29:09;95943.84;;;12.12;69.05
43155;BME280;34212;51.018;13.586;2022-09-28T04:34:21;95940.63;;;12.10;69.00
43155;BME280;34212;51.018;13.586;2022-09-28T04:39:23;95925.66;;;12.09;69.14
43155;BME280;34212;51.018;13.586;2022-09-28T04:44:27;95915.19;;;12.07;68.95
43155;BME280;34212;51.018;13.586;2022-09-28T04:49:33;95911.13;;;12.05;69.26
43155;BME280;34212;51.018;13.586;2022-09-28T04:54:42;95891.84;;;12.02;69.12
43155;BME280;34212;51.018;13.586;2022-09-28T04:59:44;95902.53;;;12.02;69.30
43155;BME280;34212;51.018;13.586;2022-09-28T05:04:45;95897.19;;;12.02;69.43
43155;BME280;34212;51.018;13.586;2022-09-28T05:10:05;95889.88;;;11.98;69.38
43155;BME280;34212;51.018;13.586;2022-09-28T05:15:08;95886.63;;;11.96;69.67
43155;BME280;34212;51.018;13.586;2022-09-28T05:20:10;95889.53;;;11.94;69.80
43155;BME280;34212;51.018;13.586;2022-09-28T05:25:12;95894.41;;;11.97;69.72
43155;BME280;34212;51.018;13.586;2022-09-28T05:30:48;95884.53;;;11.98;69.58
43155;BME280;34212;51.018;13.586;2022-09-28T05:36:02;95868.03;;;12.01;69.57
43155;BME280;34212;51.018;13.586;2022-09-28T05:41:03;95871.63;;;12.07;69.71
43155;BME280;34212;51.018;13.586;2022-09-28T05:46:07;95861.03;;;12.12;69.74
43155;BME280;34212;51.018;13.586;2022-09-28T05:51:11;95855.78;;;12.17;69.74
43155;BME280;34212;51.018;13.586;2022-09-28T05:56:13;95849.16;;;12.19;69.65
43155;BME280;34212;51.018;13.586;2022-09-28T06:01:17;95835.06;;;12.24;69.77
43155;BME280;34212;51.018;13.586;2022-09-28T06:06:19;95814.88;;;12.28;69.79
43155;BME280;34212;51.018;13.586;2022-09-28T06:11:22;95812.03;;;12.35;69.89
43155;BME280;34212;51.018;13.586;2022-09-28T06:16:28;95810.50;;;12.39;69.81
43155;BME280;34212;51.018;13.586;2022-09-28T06:21:29;95804.19;;;12.45;69.99
43155;BME280;34212;51.018;13.586;2022-09-28T06:26:31;95802.44;;;12.51;70.06
43155;BME280;34212;51.018;13.586;2022-09-28T06:31:32;95805.75;;;12.58;70.05
43155;BME280;34212;51.018;13.586;2022-09-28T06:36:35;95808.28;;;12.64;70.03
43155;BME280;34212;51.018;13.586;2022-09-28T06:41:36;95792.66;;;12.73;70.04
43155;BME280;34212;51.018;13.586;2022-09-28T06:46:47;95806.66;;;12.80;70.01
43155;BME280;34212;51.018;13.586;2022-09-28T06:52:03;95802.47;;;12.84;69.96
43155;BME280;34212;51.018;13.586;2022-09-28T06:57:24;95808.38;;;12.86;70.23
43155;BME280;34212;51.018;13.586;2022-09-28T07:02:26;95809.53;;;12.90;70.36
43155;BME280;34212;51.018;13.586;2022-09-28T07:07:47;95807.75;;;12.96;70.02
43155;BME280;34212;51.018;13.586;2022-09-28T07:12:55;95820.38;;;13.01;69.77
43155;BME280;34212;51.018;13.586;2022-09-28T07:18:04;95821.75;;;13.03;69.59
43155;BME280;34212;51.018;13.586;2022-09-28T07:23:06;95835.94;;;13.04;69.37
43155;BME280;34212;51.018;13.586;2022-09-28T07:28:58;95828.72;;;13.04;69.75
43155;BME280;34212;51.018;13.586;2022-09-28T07:34:11;95812.75;;;13.09;69.96
43155;BME280;34212;51.018;13.586;2022-09-28T07:39:33;95816.34;;;13.15;69.75
43155;BME280;34212;51.018;13.586;2022-09-28T07:44:55;95830.75;;;13.14;69.76
43155;BME280;34212;51.018;13.586;2022-09-28T07:49:57;95820.84;;;13.14;69.85
43155;BME280;34212;51.018;13.586;2022-09-28T07:55:17;95822.22;;;13.17;69.50
43155;BME280;34212;51.018;13.586;2022-09-28T08:00:32;95822.06;;;13.24;69.63
43155;BME280;34212;51.018;13.586;2022-09-28T08:05:35;95835.25;;;13.25;69.93
43155;BME280;34212;51.018;13.586;2022-09-28T08:10:37;95832.56;;;13.25;69.50
43155;BME280;34212;51.018;13.586;2022-09-28T08:16:00;95837.31;;;13.23;69.69
43155;BME280;34212;51.018;13.586;2022-09-28T08:21:13;95837.31;;;13.23;69.06
43155;BME280;34212;51.018;13.586;2022-09-28T08:26:33;95839.34;;;13.16;68.47
43155;BME280;34212;51.018;13.586;2022-09-28T08:31:34;95842.19;;;13.09;68.62
43155;BME280;34212;51.018;13.586;2022-09-28T08:36:44;95851.91;;;12.99;68.48
43155;BME280;34212;51.018;13.586;2022-09-28T08:42:34;95845.44;;;12.94;67.94
43155;BME280;34212;51.018;13.586;2022-09-28T08:59:09;95840.97;;;13.00;68.31
43155;BME280;34212;51.018;13.586;2022-09-28T09:04:13;95842.84;;;13.00;68.52
43155;BME280;34212;51.018;13.586;2022-09-28T09:20:23;95819.75;;;12.93;68.94
43155;BME280;34212;51.018;13.586;2022-09-28T09:30:51;95816.09;;;13.00;68.86
43155;BME280;34212;51.018;13.586;2022-09-28T09:36:02;95812.34;;;13.01;69.03
43155;BME280;34212;51.018;13.586;2022-09-28T09:47:08;95800.69;;;12.90;69.18
43155;BME280;34212;51.018;13.586;2022-09-28T09:52:26;95809.59;;;12.95;69.16
43155;BME280;34212;51.018;13.586;2022-09-28T09:57:47;95801.06;;;12.99;69.21
43155;BME280;34212;51.018;13.586;2022-09-28T10:03:21;95803.44;;;12.95;69.46
43155;BME280;34212;51.018;13.586;2022-09-28T10:08:25;95788.28;;;13.01;69.62
43155;BME280;34212;51.018;13.586;2022-09-28T10:13:28;95790.06;;;13.12;69.41
43155;BME280;34212;51.018;13.586;2022-09-28T10:18:35;95788.00;;;13.19;69.46
43155;BME280;34212;51.018;13.586;2022-09-28T10:23:43;95797.34;;;13.16;69.72
43155;BME280;34212;51.018;13.586;2022-09-28T10:28:51;95789.81;;;13.13;69.85
43155;BME280;34212;51.018;13.586;2022-09-28T10:33:54;95775.28;;;13.26;69.84
43155;BME280;34212;51.018;13.586;2022-09-28T10:38:57;95764.97;;;13.35;69.79
43155;BME280;34212;51.018;13.586;2022-09-28T10:44:02;95777.47;;;13.46;69.78
43155;BME280;34212;51.018;13.586;2022-09-28T10:49:21;95763.22;;;13.62;69.51
43155;BME280;34212;51.018;13.586;2022-09-28T10:54:30;95769.38;;;13.63;69.91
43155;BME280;34212;51.018;13.586;2022-09-28T10:59:37;95788.19;;;13.68;70.09
43155;BME280;34212;51.018;13.586;2022-09-28T11:04:58;95806.94;;;13.68;69.87
43155;BME280;34212;51.018;13.586;2022-09-28T11:10:15;95797.72;;;13.59;70.25
43155;BME280;34212;51.018;13.586;2022-09-28T11:15:19;95784.56;;;13.57;70.24
43155;BME280;34212;51.018;13.586;2022-09-28T11:25:31;95787.81;;;14.03;70.30
43155;BME280;34212;51.018;13.586;2022-09-28T11:30:38;95792.94;;;14.05;69.44
43155;BME280;34212;51.018;13.586;2022-09-28T11:46:31;95797.16;;;14.01;69.44
43155;BME280;34212;51.018;13.586;2022-09-28T11:51:41;95802.09;;;13.87;69.24
43155;BME280;34212;51.018;13.586;2022-09-28T11:56:44;95810.56;;;13.79;68.79
43155;BME280;34212;51.018;13.586;2022-09-28T12:01:49;95819.97;;;13.81;68.26
43155;BME280;34212;51.018;13.586;2022-09-28T12:07:29;95812.50;;;13.83;68.19
43155;BME280;34212;51.018;13.586;2022-09-28T12:12:36;95829.50;;;13.72;68.24
43155;BME280;34212;51.018;13.586;2022-09-28T12:17:51;95838.78;;;13.48;68.02
43155;BME280;34212;51.018;13.586;2022-09-28T12:23:08;95829.50;;;13.33;67.80
43155;BME280;34212;51.018;13.586;2022-09-28T12:28:17;95838.00;;;13.30;67.70
43155;BME280;34212;51.018;13.586;2022-09-28T12:33:22;95840.56;;;13.42;67.62
43155;BME280;34212;51.018;13.586;2022-09-28T12:59:57;95863.94;;;13.13;66.72
43155;BME280;34212;51.018;13.586;2022-09-28T13:10:26;95869.44;;;13.06;66.92
43155;BME280;34212;51.018;13.586;2022-09-28T13:25:38;95889.56;;;13.43;67.02
43155;BME280;34212;51.018;13.586;2022-09-28T13:30:41;95890.09;;;13.39;67.16
43155;BME280;34212;51.018;13.586;2022-09-28T13:35:44;95899.00;;;13.28;66.70
43155;BME280;34212;51.018;13.586;2022-09-28T13:46:17;95915.22;;;13.38;66.06
43155;BME280;34212;51.018;13.586;2022-09-28T13:51:33;95910.19;;;13.42;65.99
43155;BME280;34212;51.018;13.586;2022-09-28T14:01:49;95925.28;;;13.31;65.52
43155;BME280;34212;51.018;13.586;2022-09-28T14:06:53;95928.94;;;13.25;65.74
43155;BME280;34212;51.018;13.586;2022-09-28T14:11:58;95934.66;;;13.17;66.11
43155;BME280;34212;51.018;13.586;2022-09-28T14:17:33;95948.09;;;13.05;66.22
43155;BME280;34212;51.018;13.586;2022-09-28T14:32:56;95967.06;;;12.75;66.17
43155;BME280;34212;51.018;13.586;2022-09-28T14:38:05;95970.69;;;12.69;66.37
43155;BME280;34212;51.018;13.586;2022-09-28T14:48:51;95974.16;;;12.81;67.24
43155;BME280;34212;51.018;13.586;2022-09-28T14:53:53;95979.34;;;12.88;67.00
43155;BME280;34212;51.018;13.586;2022-09-28T14:58:56;95980.25;;;12.93;66.70
43155;BME280;34212;51.018;13.586;2022-09-28T15:03:59;95986.28;;;13.01;66.81
43155;BME280;34212;51.018;13.586;2022-09-28T15:09:04;95987.03;;;13.13;66.31
43155;BME280;34212;51.018;13.586;2022-09-28T15:14:05;95992.38;;;13.13;66.26
43155;BME280;34212;51.018;13.586;2022-09-28T15:19:20;95993.81;;;13.04;65.61
43155;BME280;34212;51.018;13.586;2022-09-28T15:24:26;95997.81;;;12.89;65.45
43155;BME280;34212;51.018;13.586;2022-09-28T15:29:28;96006.91;;;12.88;65.65
43155;BME280;34212;51.018;13.586;2022-09-28T15:34:34;96004.38;;;12.82;65.39
43155;BME280;34212;51.018;13.586;2022-09-28T15:39:55;96013.09;;;12.77;65.71
43155;BME280;34212;51.018;13.586;2022-09-28T15:45:18;96019.03;;;12.79;65.73
43155;BME280;34212;51.018;13.586;2022-09-28T15:50:25;96028.34;;;12.77;65.51
43155;BME280;34212;51.018;13.586;2022-09-28T15:55:38;96033.47;;;12.78;65.49
43155;BME280;34212;51.018;13.586;2022-09-28T16:00:43;96030.06;;;12.83;65.44
43155;BME280;34212;51.018;13.586;2022-09-28T16:16:03;96052.66;;;12.87;66.16
43155;BME280;34212;51.018;13.586;2022-09-28T16:21:21;96059.94;;;12.91;66.39
43155;BME280;34212;51.018;13.586;2022-09-28T16:26:28;96066.91;;;12.92;66.21
43155;BME280;34212;51.018;13.586;2022-09-28T16:31:32;96077.97;;;12.96;66.44
43155;BME280;34212;51.018;13.586;2022-09-28T16:36:38;96078.78;;;12.97;66.58
43155;BME280;34212;51.018;13.586;2022-09-28T16:41:46;96085.28;;;13.01;66.65
43155;BME280;34212;51.018;13.586;2022-09-28T16:46:48;96096.19;;;13.11;66.97
43155;BME280;34212;51.018;13.586;2022-09-28T16:51:51;96099.56;;;13.18;67.35
43155;BME280;34212;51.018;13.586;2022-09-28T16:56:52;96094.75;;;13.20;67.11
43155;BME280;34212;51.018;13.586;2022-09-28T17:01:54;96102.31;;;13.23;67.36
43155;BME280;34212;51.018;13.586;2022-09-28T17:06:56;96108.63;;;13.29;67.54
43155;BME280;34212;51.018;13.586;2022-09-28T17:11:58;96104.41;;;13.33;67.71
43155;BME280;34212;51.018;13.586;2022-09-28T17:16:59;96108.47;;;13.35;68.08
43155;BME280;34212;51.018;13.586;2022-09-28T17:22:09;96115.47;;;13.36;67.99
43155;BME280;34212;51.018;13.586;2022-09-28T17:27:11;96120.00;;;13.36;68.08
43155;BME280;34212;51.018;13.586;2022-09-28T17:32:17;96135.25;;;13.35;67.86
43155;BME280;34212;51.018;13.586;2022-09-28T17:37:18;96132.81;;;13.34;67.80
43155;BME280;34212;51.018;13.586;2022-09-28T17:42:20;96137.84;;;13.30;68.05
43155;BME280;34212;51.018;13.586;2022-09-28T17:47:21;96144.09;;;13.24;68.28
43155;BME280;34212;51.018;13.586;2022-09-28T17:52:23;96145.88;;;13.18;68.05
43155;BME280;34212;51.018;13.586;2022-09-28T17:57:24;96154.03;;;13.12;68.39
43155;BME280;34212;51.018;13.586;2022-09-28T18:02:25;96151.72;;;13.04;68.29
43155;BME280;34212;51.018;13.586;2022-09-28T18:07:27;96152.06;;;12.95;68.10
43155;BME280;34212;51.018;13.586;2022-09-28T18:12:31;96155.91;;;12.88;68.40
43155;BME280;34212;51.018;13.586;2022-09-28T18:17:32;96160.94;;;12.84;68.37
43155;BME280;34212;51.018;13.586;2022-09-28T18:22:34;96168.84;;;12.79;68.43
43155;BME280;34212;51.018;13.586;2022-09-28T18:27:35;96156.97;;;12.75;68.56
43155;BME280;34212;51.018;13.586;2022-09-28T18:32:36;96168.75;;;12.74;68.79
43155;BME280;34212;51.018;13.586;2022-09-28T18:37:38;96176.25;;;12.77;68.77
43155;BME280;34212;51.018;13.586;2022-09-28T18:42:40;96170.91;;;12.77;68.19
43155;BME280;34212;51.018;13.586;2022-09-28T18:47:42;96174.31;;;12.73;68.32
43155;BME280;34212;51.018;13.586;2022-09-28T18:52:43;96185.59;;;12.63;68.44
43155;BME280;34212;51.018;13.586;2022-09-28T18:57:45;96184.06;;;12.55;68.29
43155;BME280;34212;51.018;13.586;2022-09-28T19:02:47;96185.81;;;12.50;68.44
43155;BME280;34212;51.018;13.586;2022-09-28T19:07:48;96187.56;;;12.44;68.30
43155;BME280;34212;51.018;13.586;2022-09-28T19:12:50;96190.34;;;12.37;68.42
43155;BME280;34212;51.018;13.586;2022-09-28T19:17:52;96188.25;;;12.28;67.89
43155;BME280;34212;51.018;13.586;2022-09-28T19:22:53;96178.91;;;12.18;67.96
43155;BME280;34212;51.018;13.586;2022-09-28T19:27:55;96186.91;;;12.07;67.75
43155;BME280;34212;51.018;13.586;2022-09-28T19:32:56;96188.28;;;11.97;67.75
43155;BME280;34212;51.018;13.586;2022-09-28T19:37:58;96183.38;;;11.94;67.55
43155;BME280;34212;51.018;13.586;2022-09-28T19:42:59;96183.84;;;11.91;67.70
43155;BME280;34212;51.018;13.586;2022-09-28T19:48:00;96185.91;;;11.89;67.78
43155;BME280;34212;51.018;13.586;2022-09-28T19:53:03;96193.34;;;11.87;67.80
43155;BME280;34212;51.018;13.586;2022-09-28T19:58:06;96194.81;;;11.83;67.77
43155;BME280;34212;51.018;13.586;2022-09-28T20:03:08;96200.59;;;11.80;67.78
43155;BME280;34212;51.018;13.586;2022-09-28T20:08:10;96202.91;;;11.76;67.92
43155;BME280;34212;51.018;13.586;2022-09-28T20:13:12;96202.09;;;11.76;67.83
43155;BME280;34212;51.018;13.586;2022-09-28T20:18:13;96215.69;;;11.74;67.91
43155;BME280;34212;51.018;13.586;2022-09-28T20:23:15;96215.69;;;11.74;67.96
43155;BME280;34212;51.018;13.586;2022-09-28T20:28:16;96217.31;;;11.75;68.01
43155;BME280;34212;51.018;13.586;2022-09-28T20:33:17;96227.63;;;11.72;68.04
43155;BME280;34212;51.018;13.586;2022-09-28T20:38:28;96235.28;;;11.68;68.06
43155;BME280;34212;51.018;13.586;2022-09-28T20:43:30;96237.34;;;11.66;68.05
43155;BME280;34212;51.018;13.586;2022-09-28T20:48:31;96233.97;;;11.59;67.45
43155;BME280;34212;51.018;13.586;2022-09-28T20:53:33;96246.44;;;11.47;67.28
43155;BME280;34212;51.018;13.586;2022-09-28T20:58:36;96249.84;;;11.36;66.99
43155;BME280;34212;51.018;13.586;2022-09-28T21:03:38;96257.31;;;11.27;67.30
43155;BME280;34212;51.018;13.586;2022-09-28T21:08:40;96262.72;;;11.20;66.81
43155;BME280;34212;51.018;13.586;2022-09-28T21:13:42;96270.78;;;11.14;66.73
43155;BME280;34212;51.018;13.586;2022-09-28T21:18:43;96264.47;;;11.08;66.85
43155;BME280;34212;51.018;13.586;2022-09-28T21:23:45;96271.50;;;11.02;66.83
43155;BME280;34212;51.018;13.586;2022-09-28T21:28:46;96274.63;;;10.99;66.82
43155;BME280;34212;51.018;13.586;2022-09-28T21:33:48;96281.00;;;10.98;66.49
43155;BME280;34212;51.018;13.586;2022-09-28T21:38:49;96279.56;;;10.96;66.79
43155;BME280;34212;51.018;13.586;2022-09-28T21:43:51;96284.53;;;10.92;66.46
43155;BME280;34212;51.018;13.586;2022-09-28T21:48:52;96285.59;;;10.91;66.80
43155;BME280;34212;51.018;13.586;2022-09-28T21:53:54;96288.88;;;10.86;66.46
43155;BME280;34212;51.018;13.586;2022-09-28T21:58:55;96283.19;;;10.83;66.30
43155;BME280;34212;51.018;13.586;2022-09-28T22:03:56;96284.44;;;10.80;66.45
43155;BME280;34212;51.018;13.586;2022-09-28T22:08:58;96282.19;;;10.77;66.68
43155;BME280;34212;51.018;13.586;2022-09-28T22:13:59;96279.16;;;10.74;66.25
43155;BME280;34212;51.018;13.586;2022-09-28T22:19:00;96279.38;;;10.72;66.50
43155;BME280;34212;51.018;13.586;2022-09-28T22:24:02;96283.31;;;10.70;66.78
43155;BME280;34212;51.018;13.586;2022-09-28T22:29:06;96285.72;;;10.71;67.11
43155;BME280;34212;51.018;13.586;2022-09-28T22:34:07;96289.38;;;10.77;67.22
43155;BME280;34212;51.018;13.586;2022-09-28T22:39:09;96290.38;;;10.82;67.43
43155;BME280;34212;51.018;13.586;2022-09-28T22:44:10;96295.03;;;10.87;67.53
43155;BME280;34212;51.018;13.586;2022-09-28T22:49:12;96291.72;;;10.92;67.31
43155;BME280;34212;51.018;13.586;2022-09-28T22:54:13;96302.78;;;10.95;67.78
43155;BME280;34212;51.018;13.586;2022-09-28T22:59:16;96304.63;;;10.95;67.46
43155;BME280;34212;51.018;13.586;2022-09-28T23:04:17;96305.69;;;10.94;67.57
43155;BME280;34212;51.018;13.586;2022-09-28T23:09:19;96314.69;;;10.93;67.70
43155;BME280;34212;51.018;13.586;2022-09-28T23:14:20;96320.25;;;10.91;67.25
43155;BME280;34212;51.018;13.586;2022-09-28T23:19:22;96323.75;;;10.92;67.44
43155;BME280;34212;51.018;13.586;2022-09-28T23:24:24;96311.66;;;10.89;67.69
43155;BME280;34212;51.018;13.586;2022-09-28T23:29:25;96316.38;;;10.87;67.75
43155;BME280;34212;51.018;13.586;2022-09-28T23:34:27;96316.81;;;10.84;67.22
43155;BME280;34212;51.018;13.586;2022-09-28T23:39:28;96321.19;;;10.78;67.39
43155;BME280;34212;51.018;13.586;2022-09-28T23:44:29;96314.69;;;10.68;66.92
43155;BME280;34212;51.018;13.586;2022-09-28T23:49:34;96324.78;;;10.66;67.35
43155;BME280;34212;51.018;13.586;2022-09-28T23:54:35;96325.59;;;10.66;67.01
43155;BME280;34212;51.018;13.586;2022-09-28T23:59:36;96327.22;;;10.67;67.12
